Time;durP1;ratioP1;P1;durP2;ratioP2;P2;SDS_P1;SDS_P2;PMS_P1;PMS_P2;Temp;Humidity;BMP_temperature;BMP_pressure;BME280_temperature;BME280_humidity;BME280_pressure;Samples;Min_cycle;Max_cycle;Signal;HPM_P1;HPM_P2
2023/10/02 00:01:23;;;;;;;;;;;17.40;99.90;;;;;;5004577;28;19924;-69
2023/10/02 00:04:15;;;;;;;;;;;17.40;99.90;;;;;;4992316;28;19917;-69
2023/10/02 00:06:36;;;;;;;;;;;17.40;99.90;;;;;;5013245;28;20051;-69
2023/10/02 00:09:04;;;;;;;;;;;17.40;99.90;;;;;;5007276;28;19913;-68
2023/10/02 00:11:35;;;;;;;;;;;17.30;99.90;;;;;;5013990;28;19920;-69
2023/10/02 00:14:23;;;;;;;;;;;17.30;99.90;;;;;;4991520;28;19909;-69
2023/10/02 00:16:59;;;;;;;;;;;17.30;99.90;;;;;;5013166;28;19913;-69
2023/10/02 00:19:30;;;;;;;;;;;17.20;99.90;;;;;;5020551;28;19909;-70
2023/10/02 00:21:57;;;;;;;;;;;17.20;99.90;;;;;;5017467;28;19996;-70
2023/10/02 00:24:27;;;;;;;;;;;17.20;99.90;;;;;;4999791;28;20344;-70
2023/10/02 00:26:58;;;;;;;;;;;17.10;99.90;;;;;;5016574;28;20640;-70
2023/10/02 00:29:24;;;;;;;;;;;17.10;99.90;;;;;;5012484;28;19916;-70
2023/10/02 00:31:50;;;;;;;;;;;17.00;99.90;;;;;;5000749;28;19913;-69
2023/10/02 00:34:16;;;;;;;;;;;17.00;99.90;;;;;;4996346;28;19920;-69
2023/10/02 00:36:42;;;;;;;;;;;16.90;99.90;;;;;;5014540;28;19913;-70
2023/10/02 00:39:30;;;;;;;;;;;16.90;99.90;;;;;;5014653;28;20592;-69
2023/10/02 00:45:03;;;;;;;;;;;16.80;99.90;;;;;;5011039;28;20389;-70
2023/10/02 00:47:41;;;;;;;;;;;16.80;99.90;;;;;;5015080;28;20338;-69
2023/10/02 00:50:10;;;;;;;;;;;16.80;99.90;;;;;;5014429;28;20301;-69
2023/10/02 00:52:37;;;;;;;;;;;16.90;99.90;;;;;;5011531;28;20391;-69
2023/10/02 00:55:06;;;;;;;;;;;17.00;99.90;;;;;;5021359;28;20011;-69
2023/10/02 00:57:35;;;;;;;;;;;17.00;99.90;;;;;;5011908;28;20388;-69
2023/10/02 01:00:17;;;;;;;;;;;17.00;99.90;;;;;;5014036;28;20442;-69
2023/10/02 01:02:45;;;;;;;;;;;17.00;99.90;;;;;;5009984;28;19913;-69
2023/10/02 01:05:16;;;;;;;;;;;16.90;99.90;;;;;;4998317;28;19999;-69
2023/10/02 01:07:42;;;;;;;;;;;16.90;99.90;;;;;;5013299;28;19920;-69
2023/10/02 01:10:11;;;;;;;;;;;17.00;99.90;;;;;;5015210;28;19917;-69
2023/10/02 01:12:43;;;;;;;;;;;17.00;99.90;;;;;;5016861;28;19909;-69
2023/10/02 01:15:11;;;;;;;;;;;17.00;99.90;;;;;;5012045;28;19917;-69
2023/10/02 01:17:40;;;;;;;;;;;16.90;99.90;;;;;;4994564;28;19948;-69
2023/10/02 01:20:20;;;;;;;;;;;16.90;99.90;;;;;;5012781;28;20312;-69
2023/10/02 01:22:51;;;;;;;;;;;16.90;99.90;;;;;;4999461;28;19913;-69
2023/10/02 01:25:18;;;;;;;;;;;16.80;99.90;;;;;;5010699;28;20269;-69
2023/10/02 01:27:47;;;;;;;;;;;16.70;99.90;;;;;;5009898;28;19913;-70
2023/10/02 01:30:16;;;;;;;;;;;16.60;99.90;;;;;;5014213;28;20708;-69
2023/10/02 01:35:49;;;;;;;;;;;16.50;99.90;;;;;;5013119;28;19927;-69
2023/10/02 01:38:21;;;;;;;;;;;16.40;99.90;;;;;;5016276;28;19921;-69
2023/10/02 01:40:54;;;;;;;;;;;16.30;99.90;;;;;;5017650;28;20016;-69
2023/10/02 01:43:24;;;;;;;;;;;16.20;99.90;;;;;;5016191;28;19920;-69
2023/10/02 01:45:54;;;;;;;;;;;16.20;99.90;;;;;;4997792;28;19913;-69
2023/10/02 01:48:37;;;;;;;;;;;16.10;99.90;;;;;;5014356;28;19921;-69
2023/10/02 01:51:21;;;;;;;;;;;16.10;99.90;;;;;;5017505;28;20554;-69
2023/10/02 01:53:51;;;;;;;;;;;16.10;99.90;;;;;;5016923;28;20557;-69
2023/10/02 01:56:17;;;;;;;;;;;16.10;99.90;;;;;;5023043;28;19921;-69
2023/10/02 01:58:44;;;;;;;;;;;16.10;99.90;;;;;;5019610;28;20407;-69
2023/10/02 02:01:10;;;;;;;;;;;16.20;99.90;;;;;;5015064;28;19917;-69
2023/10/02 02:03:39;;;;;;;;;;;16.20;99.90;;;;;;5019853;28;19913;-69
2023/10/02 02:06:10;;;;;;;;;;;16.20;99.90;;;;;;5017375;28;19913;-69
2023/10/02 02:08:37;;;;;;;;;;;16.30;99.90;;;;;;5015504;28;19970;-69
2023/10/02 02:11:24;;;;;;;;;;;16.30;99.90;;;;;;4999077;28;20367;-69
2023/10/02 02:13:49;;;;;;;;;;;16.30;99.90;;;;;;4998700;28;19917;-69
2023/10/02 02:16:16;;;;;;;;;;;16.30;99.90;;;;;;5019696;28;19928;-69
2023/10/02 02:18:42;;;;;;;;;;;16.20;99.90;;;;;;5016659;28;19917;-69
2023/10/02 02:21:12;;;;;;;;;;;16.20;99.90;;;;;;5015649;28;19917;-69
2023/10/02 02:23:38;;;;;;;;;;;16.20;99.90;;;;;;5011986;28;19919;-69
2023/10/02 02:26:04;;;;;;;;;;;16.20;99.90;;;;;;5018290;28;19913;-69
2023/10/02 02:28:29;;;;;;;;;;;16.20;99.90;;;;;;5003420;28;20501;-69
2023/10/02 02:30:55;;;;;;;;;;;16.20;99.90;;;;;;5016563;28;20322;-69
2023/10/02 02:33:34;;;;;;;;;;;16.20;99.90;;;;;;5014736;28;20321;-69
2023/10/02 02:36:06;;;;;;;;;;;16.20;99.90;;;;;;5012436;28;19914;-69
2023/10/02 02:38:34;;;;;;;;;;;16.10;99.90;;;;;;5016323;28;19916;-69
2023/10/02 02:41:06;;;;;;;;;;;16.10;99.90;;;;;;5014694;28;20597;-69
2023/10/02 02:43:32;;;;;;;;;;;16.10;99.90;;;;;;5014339;28;19928;-69
2023/10/02 02:45:58;;;;;;;;;;;16.00;99.90;;;;;;5015149;28;19913;-69
2023/10/02 02:48:36;;;;;;;;;;;15.90;99.90;;;;;;5021588;28;20386;-69
2023/10/02 02:51:14;;;;;;;;;;;15.90;99.90;;;;;;5017176;28;19913;-69
2023/10/02 02:53:40;;;;;;;;;;;15.90;99.90;;;;;;4998190;28;19909;-69
2023/10/02 02:56:22;;;;;;;;;;;15.90;99.90;;;;;;5015872;28;19924;-69
2023/10/02 02:58:49;;;;;;;;;;;15.90;99.90;;;;;;5016275;28;20376;-69
2023/10/02 03:01:21;;;;;;;;;;;15.90;99.90;;;;;;5009736;28;19963;-69
2023/10/02 03:03:55;;;;;;;;;;;15.90;99.90;;;;;;5019934;28;19919;-69
2023/10/02 03:06:24;;;;;;;;;;;15.80;99.90;;;;;;5019895;28;19916;-69
2023/10/02 03:08:51;;;;;;;;;;;15.80;99.90;;;;;;5019904;28;19913;-69
2023/10/02 03:11:22;;;;;;;;;;;15.90;99.90;;;;;;5016987;28;19928;-69
2023/10/02 03:13:50;;;;;;;;;;;15.90;99.90;;;;;;5017815;28;19913;-69
2023/10/02 03:16:28;;;;;;;;;;;15.90;99.90;;;;;;5017317;28;19913;-69
2023/10/02 03:18:54;;;;;;;;;;;15.90;99.90;;;;;;5017269;28;19920;-69
2023/10/02 03:21:24;;;;;;;;;;;15.90;99.90;;;;;;5000130;28;20297;-69
2023/10/02 03:23:59;;;;;;;;;;;15.80;99.90;;;;;;5018992;28;19924;-69
2023/10/02 03:29:03;;;;;;;;;;;15.90;99.90;;;;;;5018273;28;20400;-69
2023/10/02 03:31:36;;;;;;;;;;;15.90;99.90;;;;;;5016495;28;19920;-69
2023/10/02 03:36:50;;;;;;;;;;;16.00;99.90;;;;;;5016901;28;19928;-69
2023/10/02 03:39:51;;;;;;;;;;;16.00;99.90;;;;;;5000416;28;20529;-69
2023/10/02 03:42:12;;;;;;;;;;;16.10;99.90;;;;;;5015826;28;19909;-69
2023/10/02 03:44:39;;;;;;;;;;;16.20;99.90;;;;;;5010050;28;19986;-69
2023/10/02 03:47:04;;;;;;;;;;;16.30;99.90;;;;;;4995131;28;20940;-69
2023/10/02 03:49:32;;;;;;;;;;;16.30;99.90;;;;;;5008365;28;19920;-69
2023/10/02 03:51:57;;;;;;;;;;;16.30;99.90;;;;;;5015508;28;19924;-69
2023/10/02 03:54:29;;;;;;;;;;;16.30;99.90;;;;;;5018286;28;19913;-69
2023/10/02 03:56:55;;;;;;;;;;;16.40;99.90;;;;;;5017741;28;19917;-69
2023/10/02 03:59:22;;;;;;;;;;;16.50;99.90;;;;;;4990745;28;19921;-69
2023/10/02 04:01:50;;;;;;;;;;;16.50;99.90;;;;;;5014419;28;19921;-69
2023/10/02 04:06:44;;;;;;;;;;;16.50;99.90;;;;;;5013473;28;20371;-69
2023/10/02 04:11:43;;;;;;;;;;;16.60;99.90;;;;;;5015614;28;19924;-69
2023/10/02 04:14:18;;;;;;;;;;;16.60;99.90;;;;;;5012922;28;19917;-70
2023/10/02 04:16:48;;;;;;;;;;;16.70;99.90;;;;;;5012464;28;19929;-69
2023/10/02 04:19:23;;;;;;;;;;;16.70;99.90;;;;;;5014967;28;19917;-69
2023/10/02 04:21:51;;;;;;;;;;;16.60;99.90;;;;;;5018100;28;19967;-69
2023/10/02 04:24:23;;;;;;;;;;;16.60;99.90;;;;;;5013662;28;20375;-70
2023/10/02 04:26:53;;;;;;;;;;;16.60;99.90;;;;;;5017280;28;20364;-70
2023/10/02 04:29:29;;;;;;;;;;;16.50;99.90;;;;;;4994864;28;19914;-70
2023/10/02 04:34:46;;;;;;;;;;;16.50;99.90;;;;;;5013336;28;19920;-69
2023/10/02 04:37:20;;;;;;;;;;;16.50;99.90;;;;;;5021231;28;19951;-70
2023/10/02 04:42:25;;;;;;;;;;;16.40;99.90;;;;;;5012019;28;20293;-70
2023/10/02 04:44:56;;;;;;;;;;;16.40;99.90;;;;;;5007917;28;19925;-69
2023/10/02 04:47:23;;;;;;;;;;;16.40;99.90;;;;;;5012732;28;19917;-69
2023/10/02 04:55:28;;;;;;;;;;;16.30;99.90;;;;;;5016194;28;20625;-70
2023/10/02 04:58:04;;;;;;;;;;;16.10;99.90;;;;;;5019279;28;20008;-69
2023/10/02 05:00:33;;;;;;;;;;;16.10;99.90;;;;;;5010322;28;19920;-68
2023/10/02 05:05:49;;;;;;;;;;;16.00;99.90;;;;;;5015493;28;20298;-67
2023/10/02 05:08:21;;;;;;;;;;;16.10;99.90;;;;;;5002755;28;20385;-68
2023/10/02 05:10:49;;;;;;;;;;;16.30;99.90;;;;;;5012822;28;20486;-68
2023/10/02 05:13:45;;;;;;;;;;;16.60;99.90;;;;;;5012303;28;19924;-67
2023/10/02 05:16:11;;;;;;;;;;;16.80;99.90;;;;;;5019493;28;19967;-68
2023/10/02 05:18:38;;;;;;;;;;;17.00;99.90;;;;;;5017501;28;19912;-69
2023/10/02 05:21:04;;;;;;;;;;;17.30;99.90;;;;;;5019973;28;19925;-69
2023/10/02 05:23:30;;;;;;;;;;;17.40;99.90;;;;;;5013836;28;19939;-70
2023/10/02 05:26:02;;;;;;;;;;;17.70;99.90;;;;;;5021727;28;20022;-70
2023/10/02 05:28:42;;;;;;;;;;;17.80;99.90;;;;;;5010860;28;20399;-62
2023/10/02 05:31:14;;;;;;;;;;;18.00;99.90;;;;;;5018051;28;19917;-63
2023/10/02 05:33:40;;;;;;;;;;;18.30;99.90;;;;;;5003632;28;19919;-63
2023/10/02 05:36:07;;;;;;;;;;;18.50;99.90;;;;;;5015667;28;19921;-65
2023/10/02 05:38:33;;;;;;;;;;;19.00;99.90;;;;;;5022964;28;20456;-66
2023/10/02 05:40:59;;;;;;;;;;;19.40;99.90;;;;;;5016813;28;19993;-66
2023/10/02 05:43:30;;;;;;;;;;;19.80;99.90;;;;;;5006728;28;20007;-66
2023/10/02 05:45:55;;;;;;;;;;;20.00;99.90;;;;;;4996710;28;19909;-67
2023/10/02 05:48:27;;;;;;;;;;;20.20;99.90;;;;;;5017390;28;19943;-66
2023/10/02 05:50:54;;;;;;;;;;;20.50;99.90;;;;;;5017907;28;19924;-73
2023/10/02 05:53:20;;;;;;;;;;;20.80;99.90;;;;;;5005605;28;19914;-74
2023/10/02 05:56:05;;;;;;;;;;;21.00;99.90;;;;;;5016718;28;20291;-73
2023/10/02 05:58:34;;;;;;;;;;;20.70;99.90;;;;;;5020020;28;19913;-73
2023/10/02 06:01:04;;;;;;;;;;;21.30;99.90;;;;;;5016612;28;20067;-73
2023/10/02 06:03:36;;;;;;;;;;;21.40;99.90;;;;;;5018681;28;19909;-74
2023/10/02 06:06:15;;;;;;;;;;;21.40;99.90;;;;;;5004920;28;19952;-74
2023/10/02 06:08:43;;;;;;;;;;;21.70;99.90;;;;;;5008711;28;20047;-73
2023/10/02 06:11:25;;;;;;;;;;;22.40;99.90;;;;;;5018583;28;19909;-74
2023/10/02 06:14:10;;;;;;;;;;;22.60;99.90;;;;;;5007086;28;19917;-73
2023/10/02 06:16:40;;;;;;;;;;;22.80;99.90;;;;;;4998986;28;19924;-74
2023/10/02 06:19:15;;;;;;;;;;;23.00;99.90;;;;;;5019109;28;19917;-74
2023/10/02 06:24:29;;;;;;;;;;;23.70;98.70;;;;;;5018089;28;20151;-73
2023/10/02 06:26:57;;;;;;;;;;;23.50;98.50;;;;;;5019942;28;20783;-73
2023/10/02 06:29:28;;;;;;;;;;;24.00;98.00;;;;;;4999128;28;19909;-73
2023/10/02 06:32:11;;;;;;;;;;;23.80;97.60;;;;;;5019769;28;19917;-73
2023/10/02 06:34:43;;;;;;;;;;;23.70;97.90;;;;;;4999998;28;19913;-74
2023/10/02 06:37:11;;;;;;;;;;;24.10;97.80;;;;;;4999611;28;19944;-74
2023/10/02 06:39:39;;;;;;;;;;;25.00;96.80;;;;;;5017358;28;20297;-74
2023/10/02 06:42:06;;;;;;;;;;;25.60;95.90;;;;;;5017213;28;19955;-74
2023/10/02 06:44:41;;;;;;;;;;;26.60;95.10;;;;;;5015589;28;20395;-73
2023/10/02 06:47:11;;;;;;;;;;;27.40;93.50;;;;;;5006079;28;19917;-74
2023/10/02 06:49:41;;;;;;;;;;;28.00;92.00;;;;;;4997205;28;20365;-74
2023/10/02 06:52:15;;;;;;;;;;;28.80;90.40;;;;;;4999903;28;20024;-74
2023/10/02 06:54:45;;;;;;;;;;;29.60;87.70;;;;;;5013763;28;19929;-74
2023/10/02 06:57:14;;;;;;;;;;;29.20;85.70;;;;;;5010303;28;20826;-74
2023/10/02 06:59:51;;;;;;;;;;;29.10;85.50;;;;;;4998055;28;20400;-74
2023/10/02 07:02:21;;;;;;;;;;;29.90;84.10;;;;;;5019127;28;19917;-74
2023/10/02 07:04:48;;;;;;;;;;;30.30;81.70;;;;;;5014346;28;19929;-74
2023/10/02 07:07:14;;;;;;;;;;;31.30;79.50;;;;;;5012387;28;19917;-74
2023/10/02 07:09:40;;;;;;;;;;;32.10;76.90;;;;;;5011864;28;19917;-74
2023/10/02 07:12:08;;;;;;;;;;;31.90;76.10;;;;;;5008113;28;20379;-74
2023/10/02 07:14:37;;;;;;;;;;;30.60;75.90;;;;;;5016479;28;20245;-74
2023/10/02 07:17:16;;;;;;;;;;;29.80;77.50;;;;;;5013636;28;19982;-74
2023/10/02 07:19:51;;;;;;;;;;;28.80;79.10;;;;;;5015789;28;19929;-74
2023/10/02 07:22:26;;;;;;;;;;;29.40;79.30;;;;;;5005385;28;20509;-75
2023/10/02 07:24:55;;;;;;;;;;;30.00;76.80;;;;;;5002419;28;19959;-74
2023/10/02 07:27:25;;;;;;;;;;;30.50;75.70;;;;;;5018801;28;19924;-73
2023/10/02 07:29:52;;;;;;;;;;;30.50;75.20;;;;;;5015952;28;19917;-74
2023/10/02 07:32:18;;;;;;;;;;;31.20;74.90;;;;;;4998268;28;19921;-74
2023/10/02 07:34:45;;;;;;;;;;;30.90;72.80;;;;;;5015013;28;19913;-75
2023/10/02 07:37:13;;;;;;;;;;;32.20;72.10;;;;;;5001296;28;19936;-74
2023/10/02 07:39:39;;;;;;;;;;;33.40;70.60;;;;;;5006266;28;20418;-74
2023/10/02 07:42:06;;;;;;;;;;;33.10;69.20;;;;;;5014930;28;19909;-74
2023/10/02 07:44:38;;;;;;;;;;;32.90;69.20;;;;;;5012472;28;19961;-74
2023/10/02 07:47:10;;;;;;;;;;;32.60;68.10;;;;;;5017298;28;19909;-73
2023/10/02 07:49:46;;;;;;;;;;;32.50;67.90;;;;;;5016051;28;19913;-74
2023/10/02 07:52:26;;;;;;;;;;;33.70;67.50;;;;;;5013260;28;19917;-74
2023/10/02 07:54:58;;;;;;;;;;;33.90;66.20;;;;;;4999180;28;20954;-74
2023/10/02 07:57:32;;;;;;;;;;;34.10;65.90;;;;;;5014641;28;19959;-75
2023/10/02 08:00:05;;;;;;;;;;;35.80;63.30;;;;;;5013233;28;19965;-74
2023/10/02 08:02:33;;;;;;;;;;;37.10;61.00;;;;;;5012728;28;19909;-74
2023/10/02 08:04:59;;;;;;;;;;;36.50;59.10;;;;;;4995818;28;20633;-73
2023/10/02 08:07:26;;;;;;;;;;;34.60;61.20;;;;;;5001145;28;19913;-74
2023/10/02 08:09:52;;;;;;;;;;;33.40;61.70;;;;;;5021605;28;19923;-74
2023/10/02 08:12:30;;;;;;;;;;;33.20;62.20;;;;;;5013705;28;19917;-74
2023/10/02 08:14:58;;;;;;;;;;;34.10;61.00;;;;;;5009942;28;20533;-74
2023/10/02 08:17:59;;;;;;;;;;;34.90;59.70;;;;;;5013770;28;20008;-74
2023/10/02 08:20:16;;;;;;;;;;;35.10;59.40;;;;;;5020901;28;19917;-74
2023/10/02 08:22:46;;;;;;;;;;;34.40;59.30;;;;;;4998428;28;19952;-74
2023/10/02 08:25:16;;;;;;;;;;;34.30;59.50;;;;;;5017021;28;19916;-74
2023/10/02 08:27:55;;;;;;;;;;;34.30;58.50;;;;;;5011127;28;19921;-75
2023/10/02 08:30:27;;;;;;;;;;;34.70;57.10;;;;;;5015281;28;19924;-74
2023/10/02 08:32:55;;;;;;;;;;;34.90;57.90;;;;;;4996443;28;20616;-74
2023/10/02 08:35:21;;;;;;;;;;;35.10;57.20;;;;;;5018951;28;20568;-74
2023/10/02 08:37:54;;;;;;;;;;;36.60;56.10;;;;;;5016447;28;19921;-74
2023/10/02 08:40:19;;;;;;;;;;;37.20;55.20;;;;;;5017286;28;19920;-74
2023/10/02 08:42:46;;;;;;;;;;;37.50;54.60;;;;;;4999157;28;20514;-74
2023/10/02 08:45:20;;;;;;;;;;;37.40;54.70;;;;;;4995535;28;19917;-74
2023/10/02 08:47:49;;;;;;;;;;;36.70;54.60;;;;;;4994434;28;19940;-74
2023/10/02 08:50:18;;;;;;;;;;;35.80;54.90;;;;;;5023026;28;19913;-75
2023/10/02 08:52:50;;;;;;;;;;;34.30;55.60;;;;;;5018564;28;19923;-74
2023/10/02 08:55:33;;;;;;;;;;;33.10;57.70;;;;;;5018455;28;20833;-74
2023/10/02 08:58:15;;;;;;;;;;;34.50;56.90;;;;;;5020697;28;20000;-74
2023/10/02 09:03:42;;;;;;;;;;;36.40;55.60;;;;;;5010594;28;19993;-74
2023/10/02 09:06:28;;;;;;;;;;;36.80;55.10;;;;;;5008646;28;19924;-74
2023/10/02 09:09:14;;;;;;;;;;;37.00;54.50;;;;;;5014539;28;20472;-74
2023/10/02 09:11:41;;;;;;;;;;;37.60;54.10;;;;;;5021794;28;20636;-74
2023/10/02 09:14:20;;;;;;;;;;;37.40;54.20;;;;;;5016747;28;19913;-73
2023/10/02 09:16:46;;;;;;;;;;;38.30;54.00;;;;;;5017031;28;19953;-74
2023/10/02 09:19:31;;;;;;;;;;;39.20;52.90;;;;;;5019461;28;19909;-73
2023/10/02 09:22:06;;;;;;;;;;;38.80;52.80;;;;;;5019697;28;19909;-73
2023/10/02 09:24:34;;;;;;;;;;;37.20;53.50;;;;;;5005004;28;19913;-73
2023/10/02 09:27:20;;;;;;;;;;;37.60;53.50;;;;;;5023246;28;19958;-74
2023/10/02 09:29:46;;;;;;;;;;;37.80;53.60;;;;;;5017826;28;19913;-73
2023/10/02 09:32:21;;;;;;;;;;;38.90;52.80;;;;;;5011261;28;19917;-74
2023/10/02 09:35:10;;;;;;;;;;;38.70;52.40;;;;;;5014873;28;19917;-73
2023/10/02 09:37:41;;;;;;;;;;;37.80;52.50;;;;;;4996510;28;19920;-73
2023/10/02 09:40:16;;;;;;;;;;;37.60;53.10;;;;;;5020879;28;19913;-73
2023/10/02 09:42:45;;;;;;;;;;;37.70;53.20;;;;;;5020843;28;19913;-73
2023/10/02 09:45:15;;;;;;;;;;;37.00;53.30;;;;;;5017063;28;19917;-73
2023/10/02 09:47:42;;;;;;;;;;;38.30;52.70;;;;;;5016303;28;19909;-73
2023/10/02 09:50:25;;;;;;;;;;;38.80;52.70;;;;;;5020222;28;20518;-74
2023/10/02 09:52:58;;;;;;;;;;;39.60;52.00;;;;;;5009263;28;20387;-74
2023/10/02 09:55:42;;;;;;;;;;;40.90;51.00;;;;;;5013866;28;19917;-74
2023/10/02 09:58:26;;;;;;;;;;;41.40;50.50;;;;;;5017854;28;20504;-74
2023/10/02 10:01:33;;;;;;;;;;;40.80;50.30;;;;;;5000007;28;21283;-74
2023/10/02 10:04:00;;;;;;;;;;;40.70;49.30;;;;;;5007711;28;19935;-74
2023/10/02 10:06:28;;;;;;;;;;;41.50;49.00;;;;;;5002717;28;19959;-74
2023/10/02 10:14:42;;;;;;;;;;;40.40;48.80;;;;;;5015830;28;19970;-75
2023/10/02 10:17:17;;;;;;;;;;;41.20;48.70;;;;;;4999197;28;20939;-74
2023/10/02 10:19:48;;;;;;;;;;;40.90;48.20;;;;;;5005599;28;20392;-74
2023/10/02 10:22:34;;;;;;;;;;;41.60;47.80;;;;;;5018668;28;19963;-74
2023/10/02 10:25:22;;;;;;;;;;;42.60;47.60;;;;;;5017764;28;20346;-74
2023/10/02 10:28:08;;;;;;;;;;;41.70;47.30;;;;;;5019883;28;19921;-74
2023/10/02 10:30:38;;;;;;;;;;;40.20;47.80;;;;;;5016925;28;20024;-74
2023/10/02 10:33:15;;;;;;;;;;;40.00;48.00;;;;;;5017493;28;20380;-74
2023/10/02 10:35:51;;;;;;;;;;;38.30;49.10;;;;;;5015333;28;19927;-74
2023/10/02 10:38:34;;;;;;;;;;;38.90;49.40;;;;;;4999775;28;20352;-74
2023/10/02 10:41:05;;;;;;;;;;;39.90;48.50;;;;;;5014653;28;19913;-74
2023/10/02 10:43:44;;;;;;;;;;;39.80;48.20;;;;;;5020376;28;19917;-74
2023/10/02 10:46:30;;;;;;;;;;;38.40;48.50;;;;;;5013535;28;20325;-74
2023/10/02 10:49:07;;;;;;;;;;;38.00;49.10;;;;;;4999598;28;19913;-73
2023/10/02 10:51:34;;;;;;;;;;;36.80;49.40;;;;;;5013846;28;19956;-73
2023/10/02 10:54:12;;;;;;;;;;;34.10;51.30;;;;;;4997219;28;19924;-73
2023/10/02 10:56:43;;;;;;;;;;;32.00;53.00;;;;;;5014817;28;19966;-74
2023/10/02 10:59:12;;;;;;;;;;;30.40;54.70;;;;;;5015469;28;19917;-73
2023/10/02 11:01:47;;;;;;;;;;;29.50;56.30;;;;;;4999457;28;20384;-73
2023/10/02 11:04:24;;;;;;;;;;;28.80;57.60;;;;;;5007018;28;20377;-74
2023/10/02 11:06:50;;;;;;;;;;;28.60;57.90;;;;;;5001890;28;19917;-74
2023/10/02 11:09:16;;;;;;;;;;;28.20;58.90;;;;;;5016208;28;20368;-74
2023/10/02 11:11:49;;;;;;;;;;;28.10;59.20;;;;;;5000047;28;19909;-73
2023/10/02 11:14:21;;;;;;;;;;;28.10;59.80;;;;;;5014444;28;19979;-73
2023/10/02 11:16:51;;;;;;;;;;;28.00;59.80;;;;;;4997902;28;20016;-73
2023/10/02 11:22:20;;;;;;;;;;;27.70;60.30;;;;;;5020505;28;20208;-73
2023/10/02 11:24:46;;;;;;;;;;;27.50;60.40;;;;;;5016987;28;21200;-73
2023/10/02 11:27:15;;;;;;;;;;;27.60;60.50;;;;;;5004958;28;19914;-73
2023/10/02 11:29:41;;;;;;;;;;;27.60;61.30;;;;;;4996734;28;20418;-72
2023/10/02 11:32:19;;;;;;;;;;;27.40;61.10;;;;;;5017467;28;20497;-73
2023/10/02 11:34:49;;;;;;;;;;;27.30;61.80;;;;;;4996176;28;19913;-73
2023/10/02 11:37:15;;;;;;;;;;;27.50;61.90;;;;;;5002163;28;20338;-74
2023/10/02 11:39:42;;;;;;;;;;;27.80;61.20;;;;;;5013825;28;19917;-73
2023/10/02 11:42:08;;;;;;;;;;;28.00;60.90;;;;;;5017624;28;20325;-73
2023/10/02 11:44:34;;;;;;;;;;;27.80;61.50;;;;;;5014916;28;19963;-74
2023/10/02 11:46:59;;;;;;;;;;;27.50;62.00;;;;;;5016524;28;19909;-74
2023/10/02 11:49:29;;;;;;;;;;;27.60;61.60;;;;;;5007042;28;19913;-73
2023/10/02 11:52:00;;;;;;;;;;;27.80;61.10;;;;;;5004603;28;19917;-73
2023/10/02 11:54:28;;;;;;;;;;;27.70;61.40;;;;;;5020061;28;19917;-74
2023/10/02 11:56:55;;;;;;;;;;;27.60;62.40;;;;;;5016190;28;19923;-73
2023/10/02 11:59:20;;;;;;;;;;;27.50;61.60;;;;;;5014561;28;19920;-73
2023/10/02 12:01:47;;;;;;;;;;;27.40;61.50;;;;;;5017662;28;19917;-73
2023/10/02 12:04:13;;;;;;;;;;;27.30;61.90;;;;;;5013869;28;20091;-74
2023/10/02 12:06:39;;;;;;;;;;;27.30;61.80;;;;;;5001105;28;20019;-74
2023/10/02 12:09:05;;;;;;;;;;;27.30;62.10;;;;;;5015313;28;20004;-73
2023/10/02 12:11:34;;;;;;;;;;;27.10;62.20;;;;;;4998548;28;19948;-74
2023/10/02 12:14:02;;;;;;;;;;;27.30;62.50;;;;;;5004891;28;19959;-73
2023/10/02 12:16:29;;;;;;;;;;;27.50;62.40;;;;;;5021404;28;19952;-74
2023/10/02 12:18:54;;;;;;;;;;;27.40;62.60;;;;;;5007225;28;19987;-73
2023/10/02 12:21:21;;;;;;;;;;;27.40;62.50;;;;;;5019315;28;20619;-74
2023/10/02 12:23:47;;;;;;;;;;;27.40;62.30;;;;;;5012642;28;19909;-73
2023/10/02 12:26:17;;;;;;;;;;;27.20;62.70;;;;;;5000311;28;20268;-73
2023/10/02 12:28:43;;;;;;;;;;;27.50;62.60;;;;;;5015013;28;19909;-73
2023/10/02 12:31:10;;;;;;;;;;;27.50;62.80;;;;;;5017601;28;19989;-74
2023/10/02 12:33:36;;;;;;;;;;;27.40;63.10;;;;;;5015595;28;20466;-74
2023/10/02 12:36:10;;;;;;;;;;;27.20;63.30;;;;;;5013931;28;19924;-74
2023/10/02 12:38:35;;;;;;;;;;;27.20;63.30;;;;;;5015091;28;20682;-74
2023/10/02 12:41:01;;;;;;;;;;;27.30;63.20;;;;;;4998571;28;19923;-74
2023/10/02 12:43:26;;;;;;;;;;;27.30;63.80;;;;;;5013419;28;19923;-73
2023/10/02 12:45:53;;;;;;;;;;;27.30;63.50;;;;;;5013113;28;19916;-66
2023/10/02 12:48:18;;;;;;;;;;;27.40;64.10;;;;;;5014985;28;19999;-66
2023/10/02 12:50:45;;;;;;;;;;;27.30;64.70;;;;;;4997759;28;20327;-65
2023/10/02 12:53:11;;;;;;;;;;;27.20;64.60;;;;;;5013950;28;19912;-65
2023/10/02 12:55:38;;;;;;;;;;;27.20;65.20;;;;;;5014380;28;19917;-66
2023/10/02 12:58:04;;;;;;;;;;;27.10;65.20;;;;;;5015435;28;19909;-66
2023/10/02 13:00:30;;;;;;;;;;;27.10;65.00;;;;;;4994222;28;20440;-66
2023/10/02 13:02:57;;;;;;;;;;;27.00;65.80;;;;;;5013131;28;20510;-66
2023/10/02 13:05:22;;;;;;;;;;;27.10;65.70;;;;;;5011767;28;20335;-66
2023/10/02 13:07:50;;;;;;;;;;;27.00;66.10;;;;;;5017742;28;19970;-66
2023/10/02 13:10:16;;;;;;;;;;;27.00;66.60;;;;;;5011193;28;20342;-66
2023/10/02 13:12:41;;;;;;;;;;;27.00;66.70;;;;;;5012465;28;19951;-66
2023/10/02 13:15:08;;;;;;;;;;;27.10;66.00;;;;;;5002104;28;19983;-65
2023/10/02 13:17:34;;;;;;;;;;;27.30;66.00;;;;;;5012691;28;20277;-66
2023/10/02 13:20:01;;;;;;;;;;;27.30;65.90;;;;;;5014286;28;20372;-66
2023/10/02 13:22:26;;;;;;;;;;;27.00;66.40;;;;;;5001790;28;19914;-66
2023/10/02 13:24:52;;;;;;;;;;;26.90;67.30;;;;;;5015421;28;19971;-66
2023/10/02 13:27:17;;;;;;;;;;;26.90;67.20;;;;;;5018319;28;19924;-66
2023/10/02 13:29:43;;;;;;;;;;;27.00;67.50;;;;;;4998995;28;19924;-66
2023/10/02 13:32:09;;;;;;;;;;;26.90;67.50;;;;;;5012301;28;20552;-66
2023/10/02 13:34:35;;;;;;;;;;;26.90;67.50;;;;;;5013350;28;19913;-66
2023/10/02 13:37:01;;;;;;;;;;;26.80;67.50;;;;;;5017541;28;19982;-66
2023/10/02 13:39:26;;;;;;;;;;;26.80;67.60;;;;;;5019704;28;20535;-65
2023/10/02 13:41:52;;;;;;;;;;;26.80;67.70;;;;;;5017121;28;19909;-66
2023/10/02 13:44:19;;;;;;;;;;;26.70;67.90;;;;;;4996584;28;20023;-66
2023/10/02 13:46:46;;;;;;;;;;;26.80;68.20;;;;;;5014955;28;19959;-67
2023/10/02 13:49:14;;;;;;;;;;;26.70;68.40;;;;;;4998501;28;20015;-66
2023/10/02 13:51:41;;;;;;;;;;;26.60;68.30;;;;;;4999695;28;19909;-67
2023/10/02 13:54:07;;;;;;;;;;;26.50;68.30;;;;;;5018556;28;19913;-67
2023/10/02 13:56:33;;;;;;;;;;;26.40;68.60;;;;;;5015503;28;20019;-67
2023/10/02 13:58:59;;;;;;;;;;;26.40;69.20;;;;;;5019525;28;19909;-66
2023/10/02 14:01:25;;;;;;;;;;;26.50;68.90;;;;;;4999252;28;19913;-66
2023/10/02 14:03:54;;;;;;;;;;;26.40;69.10;;;;;;5012500;28;19940;-66
2023/10/02 14:06:23;;;;;;;;;;;26.30;69.70;;;;;;5000916;28;20004;-66
2023/10/02 14:08:51;;;;;;;;;;;26.20;69.70;;;;;;5015428;28;20004;-66
2023/10/02 14:11:17;;;;;;;;;;;26.20;70.00;;;;;;5016711;28;20474;-65
2023/10/02 14:13:47;;;;;;;;;;;26.20;70.20;;;;;;5014316;28;19909;-65
2023/10/02 14:16:14;;;;;;;;;;;26.20;69.90;;;;;;5001216;28;20106;-65
2023/10/02 14:18:39;;;;;;;;;;;26.10;70.50;;;;;;5016776;28;19924;-66
2023/10/02 14:21:05;;;;;;;;;;;26.10;70.80;;;;;;5007513;28;19913;-66
2023/10/02 14:23:31;;;;;;;;;;;26.10;70.90;;;;;;5021002;28;20258;-65
2023/10/02 14:25:59;;;;;;;;;;;26.20;70.60;;;;;;5019325;28;20280;-66
2023/10/02 14:28:25;;;;;;;;;;;26.30;70.50;;;;;;5013573;28;20653;-66
2023/10/02 14:30:51;;;;;;;;;;;26.40;70.20;;;;;;5017127;28;19920;-65
2023/10/02 14:33:17;;;;;;;;;;;26.40;70.40;;;;;;5016608;28;21361;-65
2023/10/02 14:35:43;;;;;;;;;;;26.40;70.50;;;;;;5020707;28;19971;-68
2023/10/02 14:38:10;;;;;;;;;;;26.40;70.80;;;;;;5017563;28;19946;-67
2023/10/02 14:40:36;;;;;;;;;;;26.40;70.90;;;;;;5015819;28;19916;-68
2023/10/02 14:43:02;;;;;;;;;;;26.40;71.00;;;;;;5001921;28;19921;-68
2023/10/02 14:45:28;;;;;;;;;;;26.40;71.60;;;;;;5018143;28;19916;-67
2023/10/02 14:47:56;;;;;;;;;;;26.20;70.80;;;;;;5014720;28;20757;-69
2023/10/02 14:50:23;;;;;;;;;;;26.10;71.50;;;;;;5018159;28;19923;-67
2023/10/02 14:52:50;;;;;;;;;;;26.10;71.50;;;;;;5019765;28;19917;-66
2023/10/02 14:55:17;;;;;;;;;;;26.10;71.70;;;;;;5016300;28;20003;-66
2023/10/02 14:57:45;;;;;;;;;;;26.00;72.00;;;;;;5019005;28;20418;-67
2023/10/02 15:00:12;;;;;;;;;;;25.90;72.70;;;;;;5015335;28;19982;-67
2023/10/02 15:02:37;;;;;;;;;;;25.90;72.70;;;;;;5016712;28;20010;-66
2023/10/02 15:05:03;;;;;;;;;;;25.90;73.60;;;;;;5018308;28;19909;-67
2023/10/02 15:07:32;;;;;;;;;;;25.90;72.90;;;;;;5012976;28;19913;-67
2023/10/02 15:09:59;;;;;;;;;;;25.90;73.40;;;;;;5020996;28;20050;-68
2023/10/02 15:12:25;;;;;;;;;;;25.90;73.30;;;;;;5012824;28;19960;-68
2023/10/02 15:14:51;;;;;;;;;;;25.70;73.60;;;;;;5013521;28;19944;-66
2023/10/02 15:17:16;;;;;;;;;;;25.80;74.10;;;;;;4997712;28;19920;-65
2023/10/02 15:19:42;;;;;;;;;;;25.70;74.30;;;;;;5020573;28;20430;-67